Time;durP1;ratioP1;P1;durP2;ratioP2;P2;SDS_P1;SDS_P2;PMS_P1;PMS_P2;Temp;Humidity;BMP_temperature;BMP_pressure;BME280_temperature;BME280_humidity;BME280_pressure;Samples;Min_cycle;Max_cycle;Signal;HPM_P1;HPM_P2
2021/12/22 00:01:05;;;;;;;30.93;9.53;;;;;;;;;;5033728;28;20188;-76
2021/12/22 00:03:31;;;;;;;18.67;8.97;;;;;;;;;;5050190;28;20576;-76
2021/12/22 00:05:57;;;;;;;15.90;10.00;;;;;;;;;;5033994;28;20217;-76
2021/12/22 00:08:25;;;;;;;19.87;9.77;;;;;;;;;;5033817;28;20559;-76
2021/12/22 00:10:51;;;;;;;16.37;9.40;;;;;;;;;;5034146;28;20181;-76
2021/12/22 00:13:17;;;;;;;18.37;8.70;;;;;;;;;;5056337;23;20306;-76
2021/12/22 00:15:43;;;;;;;22.43;9.20;;;;;;;;;;5052449;28;20177;-76
2021/12/22 00:18:09;;;;;;;14.90;8.90;;;;;;;;;;5053908;28;20539;-77
2021/12/22 00:20:36;;;;;;;18.77;9.13;;;;;;;;;;5053707;28;20662;-77
2021/12/22 00:23:02;;;;;;;19.13;9.03;;;;;;;;;;5053747;28;20197;-77
2021/12/22 00:25:28;;;;;;;23.93;9.33;;;;;;;;;;5037210;28;20186;-77
2021/12/22 00:27:56;;;;;;;25.20;8.80;;;;;;;;;;5036925;28;20193;-77
2021/12/22 00:30:24;;;;;;;28.77;8.53;;;;;;;;;;5053657;28;20173;-77
2021/12/22 00:32:52;;;;;;;20.27;8.80;;;;;;;;;;5053596;28;20247;-77
2021/12/22 00:35:20;;;;;;;25.20;9.03;;;;;;;;;;5053885;28;20185;-77
2021/12/22 00:37:47;;;;;;;18.63;8.17;;;;;;;;;;5037485;28;20182;-77
2021/12/22 00:40:13;;;;;;;16.50;8.73;;;;;;;;;;5037028;28;20178;-77
2021/12/22 00:42:39;;;;;;;20.83;8.10;;;;;;;;;;5036751;28;20239;-77
2021/12/22 00:45:05;;;;;;;23.20;8.33;;;;;;;;;;5053556;28;20176;-77
2021/12/22 00:47:32;;;;;;;20.63;8.73;;;;;;;;;;5053262;28;20928;-77
2021/12/22 00:49:58;;;;;;;14.80;8.33;;;;;;;;;;5053665;28;20416;-77
2021/12/22 00:52:25;;;;;;;14.97;8.30;;;;;;;;;;5036500;28;20484;-77
2021/12/22 00:54:51;;;;;;;15.20;8.77;;;;;;;;;;5053118;28;20489;-77
2021/12/22 00:57:17;;;;;;;14.30;7.80;;;;;;;;;;5053209;28;20549;-77
2021/12/22 00:59:44;;;;;;;14.27;8.20;;;;;;;;;;5053250;28;20184;-77
2021/12/22 01:02:11;;;;;;;18.20;8.47;;;;;;;;;;5052938;28;20231;-77
2021/12/22 01:04:38;;;;;;;13.50;8.17;;;;;;;;;;5036483;28;20202;-77
2021/12/22 01:07:04;;;;;;;12.67;8.13;;;;;;;;;;5053070;28;20180;-77
2021/12/22 01:09:30;;;;;;;15.97;8.47;;;;;;;;;;5036535;28;20271;-77
2021/12/22 01:11:56;;;;;;;13.63;8.43;;;;;;;;;;5036477;28;20201;-77
2021/12/22 01:14:22;;;;;;;15.60;9.20;;;;;;;;;;5052989;28;20681;-77
2021/12/22 01:16:51;;;;;;;14.03;8.53;;;;;;;;;;5036222;28;20182;-77
2021/12/22 01:19:23;;;;;;;14.40;8.23;;;;;;;;;;5053123;28;20216;-76
2021/12/22 01:21:58;;;;;;;13.87;8.37;;;;;;;;;;5052698;28;20178;-77
2021/12/22 01:24:34;;;;;;;15.67;8.97;;;;;;;;;;5037370;28;20200;-77
2021/12/22 01:27:09;;;;;;;13.80;8.50;;;;;;;;;;5052042;28;20181;-77
2021/12/22 01:29:36;;;;;;;15.43;8.07;;;;;;;;;;5052925;28;20187;-77
2021/12/22 01:32:03;;;;;;;19.33;8.40;;;;;;;;;;5052358;28;20297;-77
2021/12/22 01:34:29;;;;;;;19.60;8.67;;;;;;;;;;5052490;28;20193;-77
2021/12/22 01:36:56;;;;;;;17.40;8.43;;;;;;;;;;5052446;28;20205;-77
2021/12/22 01:39:22;;;;;;;17.13;8.23;;;;;;;;;;5053835;28;20170;-77
2021/12/22 01:41:48;;;;;;;20.90;8.77;;;;;;;;;;5035547;28;20586;-77
2021/12/22 01:50:18;;;;;;;11.70;7.93;;;;;;;;;;5053860;28;20265;-77
2021/12/22 01:52:44;;;;;;;11.53;7.23;;;;;;;;;;5052049;28;20676;-77
2021/12/22 01:55:24;;;;;;;16.83;7.77;;;;;;;;;;5052322;28;20632;-77
2021/12/22 01:57:50;;;;;;;23.40;8.30;;;;;;;;;;5053308;28;20165;-77
2021/12/22 02:00:18;;;;;;;13.70;7.87;;;;;;;;;;5053220;28;20664;-77
2021/12/22 02:02:44;;;;;;;23.40;8.77;;;;;;;;;;5053042;28;20181;-77
2021/12/22 02:05:11;;;;;;;20.97;8.37;;;;;;;;;;5035643;28;20186;-77
2021/12/22 02:07:37;;;;;;;13.50;7.87;;;;;;;;;;5051882;28;20588;-77
2021/12/22 02:10:21;;;;;;;16.10;7.57;;;;;;;;;;5051880;28;20658;-77
2021/12/22 02:12:51;;;;;;;14.57;7.90;;;;;;;;;;5051572;28;20486;-77
2021/12/22 02:15:17;;;;;;;12.30;7.67;;;;;;;;;;5036023;28;20178;-77
2021/12/22 02:17:43;;;;;;;11.33;7.23;;;;;;;;;;5035220;28;20227;-77
2021/12/22 02:20:10;;;;;;;12.87;7.30;;;;;;;;;;5035297;28;20182;-77
2021/12/22 02:22:38;;;;;;;11.50;6.90;;;;;;;;;;5051359;28;20651;-77
2021/12/22 02:25:12;;;;;;;11.40;6.67;;;;;;;;;;5051561;28;20666;-77
2021/12/22 02:27:45;;;;;;;10.63;7.23;;;;;;;;;;5035766;28;20177;-77
2021/12/22 02:30:22;;;;;;;10.70;6.67;;;;;;;;;;5051478;28;20669;-77
2021/12/22 02:35:27;;;;;;;12.07;7.23;;;;;;;;;;5051625;28;20546;-77
2021/12/22 02:37:54;;;;;;;10.43;6.80;;;;;;;;;;5050677;28;20205;-77
2021/12/22 02:40:26;;;;;;;10.90;6.87;;;;;;;;;;5051105;28;20217;-77
2021/12/22 02:42:54;;;;;;;11.80;6.97;;;;;;;;;;5052503;28;20176;-77
2021/12/22 02:45:21;;;;;;;16.17;7.07;;;;;;;;;;5051391;28;20576;-77
2021/12/22 02:47:48;;;;;;;12.17;6.70;;;;;;;;;;5051058;28;20212;-77
2021/12/22 02:50:15;;;;;;;11.20;7.30;;;;;;;;;;5052405;28;20177;-77
2021/12/22 02:52:58;;;;;;;13.13;6.87;;;;;;;;;;5034223;28;20197;-77
2021/12/22 02:55:30;;;;;;;14.73;6.90;;;;;;;;;;5051162;28;20173;-77
2021/12/22 02:58:01;;;;;;;14.60;6.67;;;;;;;;;;5035394;28;20179;-77
2021/12/22 03:00:47;;;;;;;17.67;7.47;;;;;;;;;;5050960;28;20181;-77
2021/12/22 03:03:29;;;;;;;15.97;6.70;;;;;;;;;;5052366;28;20220;-77
2021/12/22 03:05:57;;;;;;;17.20;7.47;;;;;;;;;;5050875;28;20196;-77
2021/12/22 03:08:23;;;;;;;15.20;6.87;;;;;;;;;;5050981;28;20185;-77
2021/12/22 03:10:53;;;;;;;11.77;6.87;;;;;;;;;;5034257;28;20554;-77
2021/12/22 03:13:20;;;;;;;15.60;7.23;;;;;;;;;;5034582;28;20686;-76
2021/12/22 03:15:47;;;;;;;15.33;6.73;;;;;;;;;;5051043;28;20658;-76
2021/12/22 03:18:13;;;;;;;17.97;7.20;;;;;;;;;;5051038;28;20176;-76
2021/12/22 03:20:39;;;;;;;11.77;7.30;;;;;;;;;;5033982;28;20415;-76
2021/12/22 03:23:05;;;;;;;12.37;7.03;;;;;;;;;;5034191;28;20201;-76
2021/12/22 03:25:32;;;;;;;13.37;7.37;;;;;;;;;;5034146;28;20645;-76
2021/12/22 03:28:02;;;;;;;12.47;7.03;;;;;;;;;;5051562;28;20180;-76
2021/12/22 03:30:29;;;;;;;17.20;6.90;;;;;;;;;;5050544;28;20415;-76
2021/12/22 03:32:55;;;;;;;16.20;6.93;;;;;;;;;;5034116;28;20209;-76
2021/12/22 03:35:22;;;;;;;10.37;7.00;;;;;;;;;;5034044;28;20208;-76
2021/12/22 03:37:53;;;;;;;23.07;7.43;;;;;;;;;;5050702;28;20188;-76
2021/12/22 03:40:20;;;;;;;16.17;8.10;;;;;;;;;;5050444;28;20174;-76
2021/12/22 03:42:46;;;;;;;15.77;7.40;;;;;;;;;;5034204;28;20189;-76
2021/12/22 03:45:12;;;;;;;15.33;8.27;;;;;;;;;;5050593;28;20181;-76
2021/12/22 03:47:38;;;;;;;21.00;7.60;;;;;;;;;;5050617;28;20834;-76
2021/12/22 03:50:05;;;;;;;12.20;6.37;;;;;;;;;;5036864;28;20283;-76
2021/12/22 03:52:32;;;;;;;17.73;6.60;;;;;;;;;;5054249;28;20217;-76
2021/12/22 03:54:58;;;;;;;15.40;6.93;;;;;;;;;;5054269;28;20232;-76
2021/12/22 03:57:28;;;;;;;10.70;6.57;;;;;;;;;;5038054;28;20667;-76
2021/12/22 03:59:55;;;;;;;15.23;6.73;;;;;;;;;;5054420;28;20182;-76
2021/12/22 04:02:22;;;;;;;12.90;6.97;;;;;;;;;;5037909;28;20644;-76
2021/12/22 04:04:50;;;;;;;14.20;7.07;;;;;;;;;;5037766;28;20257;-76
2021/12/22 04:07:16;;;;;;;16.83;6.57;;;;;;;;;;5054229;28;20181;-76
2021/12/22 04:09:43;;;;;;;10.63;6.67;;;;;;;;;;5055339;28;20173;-76
2021/12/22 04:12:09;;;;;;;10.70;7.03;;;;;;;;;;5053767;28;20197;-76
2021/12/22 04:14:35;;;;;;;8.40;5.90;;;;;;;;;;5037749;28;20221;-76
2021/12/22 04:17:01;;;;;;;15.20;6.80;;;;;;;;;;5037564;28;20186;-76
2021/12/22 04:19:27;;;;;;;13.90;6.57;;;;;;;;;;5037479;28;20178;-76
2021/12/22 04:21:53;;;;;;;18.47;7.57;;;;;;;;;;5053809;28;20216;-76
2021/12/22 04:24:20;;;;;;;10.87;7.23;;;;;;;;;;5053946;28;20575;-76
2021/12/22 04:26:46;;;;;;;12.10;7.50;;;;;;;;;;5053488;28;20182;-76
2021/12/22 04:29:13;;;;;;;12.90;7.63;;;;;;;;;;5053781;28;20201;-76
2021/12/22 04:31:39;;;;;;;11.67;7.63;;;;;;;;;;5037016;28;20178;-76
2021/12/22 04:34:08;;;;;;;16.83;7.30;;;;;;;;;;5037262;28;20208;-76
2021/12/22 04:36:38;;;;;;;21.80;7.60;;;;;;;;;;5053662;28;20212;-76
2021/12/22 04:39:05;;;;;;;12.20;7.37;;;;;;;;;;5053881;28;20173;-76
2021/12/22 04:41:31;;;;;;;19.13;7.63;;;;;;;;;;5036978;28;20188;-76
2021/12/22 04:43:57;;;;;;;14.20;7.20;;;;;;;;;;5036972;28;20266;-76
2021/12/22 04:46:24;;;;;;;10.87;6.43;;;;;;;;;;5037138;28;20416;-76
2021/12/22 04:48:50;;;;;;;25.57;7.43;;;;;;;;;;5053487;28;20188;-76
2021/12/22 04:51:28;;;;;;;27.37;7.53;;;;;;;;;;5036654;28;20431;-76
2021/12/22 04:54:05;;;;;;;26.23;8.00;;;;;;;;;;5054409;28;20212;-76
2021/12/22 04:56:31;;;;;;;21.50;7.43;;;;;;;;;;5038209;28;20245;-76
2021/12/22 04:58:57;;;;;;;35.53;7.73;;;;;;;;;;5053291;28;20375;-76
2021/12/22 05:01:23;;;;;;;19.83;6.90;;;;;;;;;;5035943;28;20418;-76
2021/12/22 05:03:49;;;;;;;14.07;7.10;;;;;;;;;;5052974;28;20868;-76
2021/12/22 05:06:15;;;;;;;13.27;7.47;;;;;;;;;;5053402;28;20883;-76
2021/12/22 05:08:41;;;;;;;18.77;7.03;;;;;;;;;;5036580;28;20547;-76
2021/12/22 05:11:07;;;;;;;16.43;7.37;;;;;;;;;;5036254;28;20423;-76
2021/12/22 05:13:35;;;;;;;15.50;6.63;;;;;;;;;;5036352;28;20475;-76
2021/12/22 05:16:04;;;;;;;22.90;6.83;;;;;;;;;;5053199;28;20409;-76
2021/12/22 05:18:56;;;;;;;13.53;6.73;;;;;;;;;;5052722;28;20466;-76
2021/12/22 05:21:16;;;;;;;11.77;6.70;;;;;;;;;;5052482;28;20473;-76
2021/12/22 05:23:42;;;;;;;14.80;7.23;;;;;;;;;;5053948;28;20460;-76
2021/12/22 05:26:08;;;;;;;17.03;7.53;;;;;;;;;;5053966;28;20449;-76
2021/12/22 05:28:34;;;;;;;26.30;7.23;;;;;;;;;;5053797;28;20444;-76
2021/12/22 05:31:00;;;;;;;18.33;6.80;;;;;;;;;;5035891;28;20423;-76
2021/12/22 05:33:26;;;;;;;18.73;7.30;;;;;;;;;;5036219;28;20474;-76
2021/12/22 05:35:52;;;;;;;9.67;6.50;;;;;;;;;;5036254;28;20425;-76
2021/12/22 05:38:19;;;;;;;12.27;7.20;;;;;;;;;;5052559;28;20939;-76
2021/12/22 05:40:45;;;;;;;13.53;6.77;;;;;;;;;;5035641;28;20413;-76
2021/12/22 05:43:11;;;;;;;12.60;6.93;;;;;;;;;;5052256;28;20435;-76
2021/12/22 05:45:37;;;;;;;13.20;7.80;;;;;;;;;;5035912;28;20420;-76
2021/12/22 05:48:04;;;;;;;14.53;7.37;;;;;;;;;;5052396;28;20764;-76
2021/12/22 05:50:30;;;;;;;11.37;6.73;;;;;;;;;;5035827;28;20427;-76
2021/12/22 05:52:56;;;;;;;13.60;7.47;;;;;;;;;;5052007;28;20474;-76
2021/12/22 05:55:22;;;;;;;12.70;7.10;;;;;;;;;;5035695;28;20419;-76
2021/12/22 05:57:48;;;;;;;12.47;7.40;;;;;;;;;;5035645;28;20422;-76
2021/12/22 06:00:15;;;;;;;15.30;7.00;;;;;;;;;;5035725;28;20415;-76
2021/12/22 06:02:41;;;;;;;14.67;7.17;;;;;;;;;;5035580;28;20492;-76
2021/12/22 06:05:07;;;;;;;31.40;8.03;;;;;;;;;;5052102;28;20423;-76
2021/12/22 06:07:33;;;;;;;19.43;7.57;;;;;;;;;;5035583;28;20932;-76
2021/12/22 06:09:59;;;;;;;16.13;7.20;;;;;;;;;;5051948;28;20416;-77
2021/12/22 06:12:25;;;;;;;12.83;7.37;;;;;;;;;;5050945;28;20462;-77
2021/12/22 06:14:51;;;;;;;10.90;6.90;;;;;;;;;;5077238;23;20487;-80
2021/12/22 06:17:17;;;;;;;12.27;7.20;;;;;;;;;;5039474;28;20456;-80
2021/12/22 06:19:44;;;;;;;9.80;6.10;;;;;;;;;;5055630;28;20405;-79
2021/12/22 06:22:10;;;;;;;11.80;6.77;;;;;;;;;;5039220;28;20454;-79
2021/12/22 06:24:36;;;;;;;20.63;7.30;;;;;;;;;;5055833;28;20541;-79
2021/12/22 06:27:02;;;;;;;13.53;7.00;;;;;;;;;;5039686;28;20426;-79
2021/12/22 06:29:28;;;;;;;21.13;7.27;;;;;;;;;;5055182;28;20415;-79
2021/12/22 06:31:54;;;;;;;14.57;7.40;;;;;;;;;;5055533;28;20418;-79
2021/12/22 06:34:20;;;;;;;14.90;7.03;;;;;;;;;;5056222;28;20428;-79
2021/12/22 06:36:46;;;;;;;11.63;6.63;;;;;;;;;;5055822;28;20409;-79
2021/12/22 06:39:13;;;;;;;13.60;6.73;;;;;;;;;;5055566;28;20415;-79
2021/12/22 06:41:40;;;;;;;19.60;7.20;;;;;;;;;;5055002;28;20426;-79
2021/12/22 06:44:06;;;;;;;16.13;6.23;;;;;;;;;;5039126;28;20442;-78
2021/12/22 06:46:32;;;;;;;19.63;8.88;;;;;;;;;;5038018;28;20984;-78
2021/12/22 06:48:58;;;;;;;14.07;7.47;;;;;;;;;;5038753;28;20552;-79
2021/12/22 06:51:24;;;;;;;17.90;7.00;;;;;;;;;;5038937;28;20425;-79
2021/12/22 06:53:50;;;;;;;11.60;5.93;;;;;;;;;;5038889;28;20466;-79
2021/12/22 06:56:16;;;;;;;7.57;5.97;;;;;;;;;;5038586;28;20422;-77
2021/12/22 06:58:42;;;;;;;16.97;7.00;;;;;;;;;;5037923;28;20911;-77
2021/12/22 07:01:12;;;;;;;9.63;6.50;;;;;;;;;;5054425;28;20475;-77
2021/12/22 07:03:38;;;;;;;10.27;5.93;;;;;;;;;;5054318;28;20501;-77
2021/12/22 07:06:04;;;;;;;10.20;6.27;;;;;;;;;;5054533;28;20777;-77
2021/12/22 07:08:30;;;;;;;11.60;6.57;;;;;;;;;;5037932;28;20418;-79
2021/12/22 07:10:56;;;;;;;8.23;5.57;;;;;;;;;;5037527;28;20429;-78
2021/12/22 07:13:23;;;;;;;8.77;5.40;;;;;;;;;;5037754;28;20498;-78
2021/12/22 07:15:49;;;;;;;9.17;6.40;;;;;;;;;;5038267;28;20506;-77
2021/12/22 07:18:15;;;;;;;11.20;6.03;;;;;;;;;;5038324;28;20418;-79
2021/12/22 07:20:41;;;;;;;14.47;6.50;;;;;;;;;;5054886;28;20421;-79
2021/12/22 07:23:07;;;;;;;11.10;6.23;;;;;;;;;;5054946;28;20481;-79
2021/12/22 07:25:33;;;;;;;13.03;6.07;;;;;;;;;;5054905;28;20424;-79
2021/12/22 07:27:59;;;;;;;14.70;6.20;;;;;;;;;;5055191;28;20414;-80
2021/12/22 07:30:25;;;;;;;12.70;6.40;;;;;;;;;;5054876;28;20438;-79
2021/12/22 07:32:52;;;;;;;12.63;6.33;;;;;;;;;;5054631;28;20542;-79
2021/12/22 07:35:25;;;;;;;12.50;6.07;;;;;;;;;;5054511;28;20412;-80
2021/12/22 07:37:57;;;;;;;9.17;6.53;;;;;;;;;;5054484;28;20410;-80
2021/12/22 07:40:24;;;;;;;13.90;7.00;;;;;;;;;;5054473;28;20411;-80
2021/12/22 07:42:50;;;;;;;8.03;6.27;;;;;;;;;;5072738;28;20176;-79
2021/12/22 07:45:16;;;;;;;9.93;6.17;;;;;;;;;;5038184;28;20419;-79
2021/12/22 07:47:42;;;;;;;8.70;5.87;;;;;;;;;;5054487;28;20190;-80
2021/12/22 07:50:09;;;;;;;10.17;6.40;;;;;;;;;;5037934;28;20433;-79
2021/12/22 07:52:35;;;;;;;11.70;5.90;;;;;;;;;;5054033;28;20812;-80
2021/12/22 07:55:01;;;;;;;12.20;8.03;;;;;;;;;;5038178;28;20435;-80
2021/12/22 07:57:27;;;;;;;11.27;6.60;;;;;;;;;;5056201;28;20169;-80
2021/12/22 07:59:53;;;;;;;9.40;6.50;;;;;;;;;;5037627;28;20185;-80
2021/12/22 08:02:19;;;;;;;9.17;6.03;;;;;;;;;;5037537;28;20177;-80
2021/12/22 08:04:45;;;;;;;10.50;6.70;;;;;;;;;;5037767;28;20205;-80
2021/12/22 08:07:11;;;;;;;11.73;7.10;;;;;;;;;;5037825;28;20181;-80
2021/12/22 08:09:37;;;;;;;11.87;7.70;;;;;;;;;;5037665;28;20181;-80
2021/12/22 08:12:07;;;;;;;13.60;7.87;;;;;;;;;;5037680;28;20212;-80
2021/12/22 08:14:33;;;;;;;25.33;12.93;;;;;;;;;;5053996;28;20212;-80
2021/12/22 08:16:59;;;;;;;11.37;6.70;;;;;;;;;;5055462;28;20180;-80
2021/12/22 08:19:25;;;;;;;8.93;6.33;;;;;;;;;;5054088;28;20177;-80
2021/12/22 08:21:52;;;;;;;10.73;6.33;;;;;;;;;;5053811;28;20264;-80
2021/12/22 08:24:18;;;;;;;9.97;5.97;;;;;;;;;;5054120;28;20207;-80
2021/12/22 08:26:44;;;;;;;14.70;6.47;;;;;;;;;;5054524;28;20177;-80
2021/12/22 08:29:10;;;;;;;13.80;8.27;;;;;;;;;;5055786;28;20176;-80
2021/12/22 08:31:36;;;;;;;10.37;6.77;;;;;;;;;;5037678;28;20185;-80
2021/12/22 08:34:04;;;;;;;12.10;6.30;;;;;;;;;;5054283;28;20596;-80
2021/12/22 08:39:15;;;;;;;12.27;6.40;;;;;;;;;;5040467;28;20233;-80
2021/12/22 08:41:43;;;;;;;10.20;6.10;;;;;;;;;;5021690;28;20403;-80
2021/12/22 08:44:10;;;;;;;10.17;6.53;;;;;;;;;;5038113;28;20285;-80
2021/12/22 08:46:38;;;;;;;13.17;6.10;;;;;;;;;;5021534;28;20181;-80
2021/12/22 08:49:05;;;;;;;13.10;6.13;;;;;;;;;;5058035;28;20412;-80
2021/12/22 08:51:31;;;;;;;14.50;6.10;;;;;;;;;;5041048;28;20683;-80
2021/12/22 08:54:00;;;;;;;13.23;7.23;;;;;;;;;;5056751;28;20470;-80
2021/12/22 08:56:26;;;;;;;16.20;8.17;;;;;;;;;;5057323;28;20173;-80
2021/12/22 08:58:54;;;;;;;13.00;6.73;;;;;;;;;;5040861;28;20416;-80
2021/12/22 09:01:20;;;;;;;9.97;6.13;;;;;;;;;;5040109;28;20970;-80
2021/12/22 09:03:46;;;;;;;11.53;6.43;;;;;;;;;;5069823;28;20608;-80
2021/12/22 09:06:12;;;;;;;11.33;5.87;;;;;;;;;;5052192;28;20514;-80
2021/12/22 09:08:38;;;;;;;9.27;5.80;;;;;;;;;;5056920;28;20422;-80
2021/12/22 09:11:04;;;;;;;11.37;6.53;;;;;;;;;;5040216;28;20435;-80
2021/12/22 09:13:30;;;;;;;12.20;5.93;;;;;;;;;;5040080;28;20485;-80
2021/12/22 09:15:57;;;;;;;12.07;6.63;;;;;;;;;;5056768;28;20600;-80
2021/12/22 09:18:23;;;;;;;10.77;6.80;;;;;;;;;;5057133;28;20413;-80
2021/12/22 09:20:49;;;;;;;12.97;8.10;;;;;;;;;;5040532;28;20423;-80
2021/12/22 09:23:15;;;;;;;9.10;6.17;;;;;;;;;;5057375;28;20484;-80
2021/12/22 09:25:42;;;;;;;10.17;7.53;;;;;;;;;;5057004;28;20432;-80
2021/12/22 09:28:09;;;;;;;13.80;7.63;;;;;;;;;;5040061;28;20414;-80
2021/12/22 09:30:36;;;;;;;11.03;6.73;;;;;;;;;;5040262;28;20429;-80
2021/12/22 09:33:07;;;;;;;9.70;6.73;;;;;;;;;;5056787;28;20458;-80
2021/12/22 09:35:33;;;;;;;9.30;6.03;;;;;;;;;;5056801;28;20418;-80
2021/12/22 09:38:00;;;;;;;11.47;5.97;;;;;;;;;;5040554;28;20422;-80
2021/12/22 09:40:26;;;;;;;8.53;6.20;;;;;;;;;;5056330;28;20416;-80
2021/12/22 09:42:52;;;;;;;9.83;6.27;;;;;;;;;;5040087;28;20425;-80
2021/12/22 09:45:21;;;;;;;10.53;6.57;;;;;;;;;;5040502;28;20418;-80
2021/12/22 09:48:14;;;;;;;8.53;6.10;;;;;;;;;;5057009;28;20448;-79
2021/12/22 09:50:47;;;;;;;11.03;6.73;;;;;;;;;;5074112;28;20414;-79
2021/12/22 09:53:14;;;;;;;11.80;6.53;;;;;;;;;;5040805;28;20471;-80
2021/12/22 09:55:41;;;;;;;9.77;5.93;;;;;;;;;;5039923;28;20426;-80
2021/12/22 09:58:09;;;;;;;9.13;6.00;;;;;;;;;;5056316;28;20500;-80
2021/12/22 10:00:36;;;;;;;10.27;6.53;;;;;;;;;;5055906;28;20419;-80
2021/12/22 10:03:04;;;;;;;9.70;5.60;;;;;;;;;;5055981;28;20419;-80
2021/12/22 10:05:30;;;;;;;10.93;6.77;;;;;;;;;;5039457;28;20181;-80
2021/12/22 10:08:13;;;;;;;9.60;6.70;;;;;;;;;;5055776;28;20184;-80
2021/12/22 10:10:43;;;;;;;9.50;6.27;;;;;;;;;;5039243;28;20181;-80
2021/12/22 10:13:11;;;;;;;11.10;7.00;;;;;;;;;;5055675;28;20196;-80
2021/12/22 10:15:38;;;;;;;13.83;8.57;;;;;;;;;;5055848;28;20624;-80
2021/12/22 10:18:24;;;;;;;16.73;9.07;;;;;;;;;;5039765;28;20921;-80
2021/12/22 10:20:51;;;;;;;33.73;15.23;;;;;;;;;;5056021;28;20179;-79
2021/12/22 10:23:20;;;;;;;24.83;12.53;;;;;;;;;;5039532;28;20220;-80
2021/12/22 10:25:50;;;;;;;19.23;9.80;;;;;;;;;;5056003;28;20181;-80
2021/12/22 10:28:19;;;;;;;17.77;10.00;;;;;;;;;;5055819;28;20184;-80
2021/12/22 10:30:45;;;;;;;16.43;10.10;;;;;;;;;;5038826;28;20185;-80
2021/12/22 10:33:17;;;;;;;14.53;8.93;;;;;;;;;;5055387;28;20583;-79
2021/12/22 10:35:48;;;;;;;14.03;8.33;;;;;;;;;;5055676;28;20169;-80
2021/12/22 10:38:15;;;;;;;14.20;8.87;;;;;;;;;;5055801;28;20184;-79
2021/12/22 10:40:42;;;;;;;14.73;9.10;;;;;;;;;;5055500;28;20439;-79
2021/12/22 10:43:09;;;;;;;13.00;8.27;;;;;;;;;;5055698;28;20204;-79
2021/12/22 10:45:36;;;;;;;13.40;8.57;;;;;;;;;;5039335;28;20220;-79
2021/12/22 10:50:57;;;;;;;11.67;7.83;;;;;;;;;;5073836;28;20188;-80
2021/12/22 10:53:23;;;;;;;10.57;6.90;;;;;;;;;;5055182;28;20216;-79
2021/12/22 10:55:51;;;;;;;10.33;6.40;;;;;;;;;;5055117;28;20175;-80
2021/12/22 10:58:20;;;;;;;10.33;6.93;;;;;;;;;;5054934;28;20173;-79
2021/12/22 11:01:08;;;;;;;9.43;6.50;;;;;;;;;;5054697;28;20177;-79
2021/12/22 11:03:41;;;;;;;8.37;6.23;;;;;;;;;;5055432;28;20205;-78
2021/12/22 11:06:12;;;;;;;9.73;6.83;;;;;;;;;;5039605;28;20182;-79
2021/12/22 11:08:38;;;;;;;10.27;6.60;;;;;;;;;;5038886;28;20653;-80
2021/12/22 11:11:14;;;;;;;9.30;6.57;;;;;;;;;;5055072;28;20220;-79
2021/12/22 11:13:41;;;;;;;10.50;7.37;;;;;;;;;;5055097;28;20300;-79
2021/12/22 11:16:12;;;;;;;11.20;7.10;;;;;;;;;;5055354;28;20713;-78
2021/12/22 11:18:38;;;;;;;9.50;7.00;;;;;;;;;;5054413;28;20169;-81
2021/12/22 11:21:12;;;;;;;9.53;6.93;;;;;;;;;;5055035;28;20175;-80
2021/12/22 11:23:39;;;;;;;9.80;7.33;;;;;;;;;;5055410;28;20691;-79
2021/12/22 11:26:06;;;;;;;10.40;7.77;;;;;;;;;;5038398;28;20644;-80
2021/12/22 11:28:35;;;;;;;9.93;7.00;;;;;;;;;;5055068;28;20174;-80
2021/12/22 11:31:02;;;;;;;10.03;7.10;;;;;;;;;;5038958;28;20672;-80
2021/12/22 11:33:30;;;;;;;8.80;7.00;;;;;;;;;;5054715;28;20207;-79
2021/12/22 11:35:57;;;;;;;10.33;6.60;;;;;;;;;;5039034;28;20190;-79
2021/12/22 11:38:23;;;;;;;19.47;12.17;;;;;;;;;;5055475;28;20182;-79
2021/12/22 11:40:56;;;;;;;13.07;9.30;;;;;;;;;;5038532;28;20172;-79
2021/12/22 11:43:24;;;;;;;17.93;12.40;;;;;;;;;;5055321;28;20197;-79
2021/12/22 11:45:51;;;;;;;10.93;8.13;;;;;;;;;;5054961;28;20240;-79
2021/12/22 11:48:17;;;;;;;11.07;7.90;;;;;;;;;;5038477;28;20187;-79
2021/12/22 11:50:47;;;;;;;9.60;6.43;;;;;;;;;;5054403;28;20181;-79
2021/12/22 11:53:13;;;;;;;9.73;7.10;;;;;;;;;;5038521;28;20213;-80
2021/12/22 11:55:47;;;;;;;8.17;5.87;;;;;;;;;;5054668;28;20651;-80
2021/12/22 11:58:13;;;;;;;8.20;6.40;;;;;;;;;;5038104;28;20173;-81
2021/12/22 12:00:40;;;;;;;7.50;5.67;;;;;;;;;;5053939;28;20184;-80
2021/12/22 12:03:26;;;;;;;8.17;6.27;;;;;;;;;;5037675;28;20539;-81
2021/12/22 12:06:18;;;;;;;9.73;6.23;;;;;;;;;;5054067;28;20188;-80
2021/12/22 12:08:47;;;;;;;8.83;6.67;;;;;;;;;;5050346;28;20216;-81
2021/12/22 12:11:16;;;;;;;9.47;6.00;;;;;;;;;;5055239;28;20177;-81
2021/12/22 12:13:47;;;;;;;9.47;7.10;;;;;;;;;;5090662;23;20245;-81
2021/12/22 12:22:17;;;;;;;8.57;5.90;;;;;;;;;;5056818;28;20232;-80
2021/12/22 12:24:43;;;;;;;7.43;5.60;;;;;;;;;;5055529;28;20208;-79
2021/12/22 12:27:28;;;;;;;7.77;5.77;;;;;;;;;;5055675;28;20260;-80
2021/12/22 12:29:56;;;;;;;7.13;5.60;;;;;;;;;;5055430;28;20539;-80
2021/12/22 12:32:40;;;;;;;7.53;5.83;;;;;;;;;;5038463;28;20220;-81
2021/12/22 12:35:22;;;;;;;9.37;6.53;;;;;;;;;;5054883;28;20191;-81
2021/12/22 12:38:04;;;;;;;8.87;6.57;;;;;;;;;;5055018;28;20174;-81
2021/12/22 12:40:49;;;;;;;8.60;6.80;;;;;;;;;;5054725;28;20178;-82
2021/12/22 12:49:13;;;;;;;10.47;7.50;;;;;;;;;;5055586;28;20169;-82
2021/12/22 12:51:47;;;;;;;8.90;7.27;;;;;;;;;;5053954;28;20175;-81
2021/12/22 12:54:21;;;;;;;9.73;7.10;;;;;;;;;;5054183;28;20725;-81
2021/12/22 12:56:47;;;;;;;11.53;7.40;;;;;;;;;;5054093;28;20175;-79
2021/12/22 12:59:15;;;;;;;11.57;7.63;;;;;;;;;;5054683;28;20176;-80
2021/12/22 13:01:47;;;;;;;11.20;7.73;;;;;;;;;;5053878;28;20217;-80
2021/12/22 13:04:23;;;;;;;11.63;8.10;;;;;;;;;;5054444;28;20226;-79
2021/12/22 13:06:54;;;;;;;11.37;8.20;;;;;;;;;;5037702;28;20181;-80
2021/12/22 13:09:24;;;;;;;11.53;8.03;;;;;;;;;;5054782;28;20571;-80
2021/12/22 13:11:54;;;;;;;13.03;8.87;;;;;;;;;;5054369;28;20182;-81
2021/12/22 13:17:15;;;;;;;12.77;8.50;;;;;;;;;;5054988;28;20165;-80
2021/12/22 13:19:49;;;;;;;12.17;8.90;;;;;;;;;;5037105;28;20190;-80
2021/12/22 13:22:22;;;;;;;12.97;8.77;;;;;;;;;;5053026;28;20629;-80
2021/12/22 13:24:48;;;;;;;13.03;9.23;;;;;;;;;;5053806;28;20194;-80
2021/12/22 13:27:31;;;;;;;14.10;9.73;;;;;;;;;;5036970;28;20241;-80
2021/12/22 13:30:24;;;;;;;13.33;9.30;;;;;;;;;;5054646;28;20162;-81
2021/12/22 13:33:01;;;;;;;13.75;10.75;;;;;;;;;;5049400;28;20439;-81
2021/12/22 13:35:47;;;;;;;14.80;10.33;;;;;;;;;;5053345;28;20193;-81
2021/12/22 13:38:23;;;;;;;14.87;9.63;;;;;;;;;;5053165;28;20172;-81
2021/12/22 13:40:58;;;;;;;13.10;8.90;;;;;;;;;;5053151;28;20166;-81
2021/12/22 13:43:29;;;;;;;14.67;8.97;;;;;;;;;;5053372;28;20178;-81
2021/12/22 13:46:08;;;;;;;12.43;8.53;;;;;;;;;;5036796;28;20190;-79
2021/12/22 13:48:35;;;;;;;14.53;9.77;;;;;;;;;;5053022;28;20185;-79
2021/12/22 13:51:03;;;;;;;12.80;8.90;;;;;;;;;;5036568;28;20553;-81
2021/12/22 13:53:30;;;;;;;12.43;9.27;;;;;;;;;;5036625;28;20292;-81
2021/12/22 13:55:57;;;;;;;13.47;8.57;;;;;;;;;;5036406;28;20231;-82
2021/12/22 13:58:34;;;;;;;14.33;8.87;;;;;;;;;;5036385;28;20181;-80
2021/12/22 14:01:29;;;;;;;13.03;8.73;;;;;;;;;;5053730;28;20253;-81
2021/12/22 14:04:01;;;;;;;12.80;8.50;;;;;;;;;;5039674;28;20209;-80
2021/12/22 14:06:31;;;;;;;14.37;9.27;;;;;;;;;;5052660;28;20186;-80
2021/12/22 14:09:00;;;;;;;15.23;9.50;;;;;;;;;;5036580;28;20189;-80
2021/12/22 14:11:32;;;;;;;16.03;9.53;;;;;;;;;;5052690;28;20268;-81
2021/12/22 14:14:19;;;;;;;14.63;10.00;;;;;;;;;;5053564;28;20239;-80
2021/12/22 14:16:45;;;;;;;14.10;9.47;;;;;;;;;;5052675;28;20169;-82
2021/12/22 14:19:15;;;;;;;15.77;10.00;;;;;;;;;;5052841;28;20170;-81
2021/12/22 14:21:41;;;;;;;14.87;9.73;;;;;;;;;;5035942;28;20187;-82
2021/12/22 14:24:07;;;;;;;14.33;9.67;;;;;;;;;;5035662;28;20216;-82
2021/12/22 14:26:33;;;;;;;13.87;9.30;;;;;;;;;;5035751;28;20185;-82
2021/12/22 14:29:10;;;;;;;18.03;10.50;;;;;;;;;;5035662;28;20185;-82
2021/12/22 14:31:38;;;;;;;16.60;10.77;;;;;;;;;;5052299;28;20173;-81
2021/12/22 14:34:08;;;;;;;14.50;9.67;;;;;;;;;;5051323;28;20204;-81
2021/12/22 14:36:50;;;;;;;15.23;9.97;;;;;;;;;;5036095;28;20234;-81
2021/12/22 14:39:17;;;;;;;16.57;10.27;;;;;;;;;;5036195;28;20543;-81
2021/12/22 14:41:43;;;;;;;15.70;9.87;;;;;;;;;;5035801;28;20181;-81
2021/12/22 14:44:20;;;;;;;13.87;9.90;;;;;;;;;;5052181;28;20210;-81
2021/12/22 14:46:47;;;;;;;13.93;9.43;;;;;;;;;;5052005;28;20180;-81
2021/12/22 14:49:14;;;;;;;14.33;9.83;;;;;;;;;;5035576;28;20196;-81
2021/12/22 14:51:42;;;;;;;14.00;9.20;;;;;;;;;;5051945;28;20185;-81
2021/12/22 14:54:08;;;;;;;15.70;10.20;;;;;;;;;;5051919;28;20219;-81
2021/12/22 14:56:40;;;;;;;15.27;10.60;;;;;;;;;;5035719;28;20234;-81
2021/12/22 14:59:06;;;;;;;15.43;10.20;;;;;;;;;;5052348;28;20180;-81
2021/12/22 15:01:32;;;;;;;14.87;10.30;;;;;;;;;;5052061;28;20177;-81
2021/12/22 15:03:59;;;;;;;14.23;10.30;;;;;;;;;;5035171;28;20210;-81
2021/12/22 15:06:26;;;;;;;16.00;9.53;;;;;;;;;;5052109;28;20627;-81
2021/12/22 15:08:52;;;;;;;14.57;9.10;;;;;;;;;;5051613;28;20635;-81